createdAt,value
2023-04-18T00:05:52.687Z,0
2023-04-18T00:18:52.716Z,0
2023-04-18T00:31:52.718Z,0.6
2023-04-18T00:44:52.748Z,0.2
2023-04-18T00:57:52.744Z,0
2023-04-18T01:10:53.973Z,0.4
2023-04-18T01:23:52.720Z,0
2023-04-18T01:36:52.722Z,0
2023-04-18T01:49:52.772Z,0
2023-04-18T02:02:52.882Z,0.4
2023-04-18T02:15:52.745Z,0.8
2023-04-18T02:28:52.739Z,0
2023-04-18T02:41:52.761Z,0
2023-04-18T02:54:52.748Z,0.8
2023-04-18T03:07:52.752Z,0.2
2023-04-18T03:20:52.763Z,0.4
2023-04-18T03:33:52.767Z,0
2023-04-18T03:46:52.761Z,0
2023-04-18T03:59:52.771Z,0
2023-04-18T04:12:52.781Z,0
2023-04-18T04:26:52.765Z,0.8
2023-04-18T04:40:52.829Z,0
2023-04-18T04:55:52.772Z,0
2023-04-18T05:09:52.783Z,0
2023-04-18T05:23:52.788Z,0
2023-04-18T05:37:52.785Z,0
2023-04-18T05:51:52.805Z,0
2023-04-18T06:05:52.874Z,0
2023-04-18T06:19:52.796Z,0
2023-04-18T06:33:52.849Z,0
2023-04-18T06:47:52.978Z,0
2023-04-18T07:01:52.856Z,0
2023-04-18T07:15:52.920Z,0
2023-04-18T07:29:52.820Z,0
2023-04-18T07:43:52.845Z,0
2023-04-18T07:57:52.823Z,0
2023-04-18T08:11:52.840Z,0
2023-04-18T08:25:52.847Z,0.6
2023-04-18T08:39:52.876Z,0.4
2023-04-18T08:53:52.840Z,0.6
2023-04-18T09:07:53.311Z,0.6
2023-04-18T09:21:53.150Z,0.9
2023-04-18T09:35:53.015Z,1.0
2023-04-18T09:49:53.286Z,0.2
2023-04-18T10:03:53.193Z,0.9
2023-04-18T10:18:03.254Z,0.7
2023-04-18T10:31:52.895Z,1.4
2023-04-18T10:45:52.873Z,1.3
2023-04-18T10:59:52.896Z,1.4
2023-04-18T11:13:52.891Z,1.3
2023-04-18T11:27:52.898Z,0.2
2023-04-18T11:41:52.885Z,1.3
2023-04-18T11:55:52.881Z,1.3
2023-04-18T12:09:52.885Z,2.6
2023-04-18T12:23:52.891Z,1.1
2023-04-18T12:37:52.890Z,1.7
2023-04-18T12:51:52.892Z,1.7
2023-04-18T13:05:52.905Z,1.1
2023-04-18T13:19:52.890Z,1.6
2023-04-18T13:33:52.923Z,1.2
2023-04-18T13:47:53.001Z,2.2
2023-04-18T14:01:53.004Z,1.6
2023-04-18T14:15:52.959Z,1.2
2023-04-18T14:29:52.919Z,1.7
2023-04-18T14:43:52.958Z,1.3
2023-04-18T15:06:52.969Z,0.8
2023-04-18T15:20:53.137Z,1.0
2023-04-18T15:36:52.973Z,0.8
2023-04-18T15:50:52.981Z,0.2
2023-04-18T16:22:52.995Z,0.9
2023-04-18T17:11:53.018Z,0.2
2023-04-18T17:25:53.010Z,0
2023-04-18T17:39:53.010Z,0
2023-04-18T17:53:53.016Z,0
2023-04-18T18:08:53.029Z,0
2023-04-18T18:22:53.049Z,0
2023-04-18T18:36:53.045Z,0
2023-04-18T18:49:53.042Z,0
2023-04-18T19:02:53.152Z,0
2023-04-18T19:15:53.084Z,0
2023-04-18T19:28:53.064Z,0
2023-04-18T19:41:53.062Z,0
2023-04-18T19:54:53.053Z,0
2023-04-18T20:07:53.069Z,0
2023-04-18T20:20:53.074Z,0
2023-04-18T20:33:53.068Z,0.4
2023-04-18T20:46:53.093Z,0
2023-04-18T20:59:53.092Z,0
2023-04-18T21:12:53.081Z,0.8
2023-04-18T21:25:53.117Z,0.8
2023-04-18T21:38:53.154Z,0
2023-04-18T21:51:53.121Z,0.6
2023-04-18T22:04:53.121Z,0
2023-04-18T22:17:53.263Z,0
2023-04-18T22:30:53.163Z,0
2023-04-18T22:43:53.141Z,0
2023-04-18T22:56:53.136Z,0
2023-04-18T23:09:53.154Z,0
2023-04-18T23:22:53.162Z,0
2023-04-18T23:35:53.172Z,0
2023-04-18T23:48:53.161Z,0.4
